Latest  Newer  Older  Last 2 hours animation  Current image  Latest image 
Rain/snow radar  Infrared sat images 
Real-time lightning map

All time is UTC (add 2 hours to UTC in wintertime, 3 hours to UTC in DST for Latvia local time)

2018/04/26 03:20 EVRA 260320Z 24006KT 210V270 9999 SCT006 05/05 Q0999 NOSIG
2018/04/26 03:20 EVLA 260320Z AUTO 27008KT 240V300 9999 NCD 06/04 Q1002
2018/04/26 03:20 EVVA 260320Z AUTO 26010KT CAVOK 05/04 Q1000
2018/04/26 03:20 EYKA 260320Z 25013KT 9999 OVC010 06/04 Q1004
2018/04/26 03:20 EYPA 260320Z 28006KT 230V320 CAVOK 05/04 Q1003
2018/04/26 03:20 EYSA 260320Z 25012KT 9999 OVC008 06/05 Q1002 GRN NOSIG
2018/04/26 03:20 EYVI 260320Z 27009KT 9999 FEW015 05/03 Q1003 NOSIG
2018/04/26 02:50 EEKA 260250Z 24002KT 9000 SCT037 03/03 Q0996
2018/04/26 02:50 EEKE 260250Z AUTO 29006KT 240V330 9999NDV NSC 05/04 Q0997
2018/04/25 12:50 EEPU 251250Z 22016KT 9999 BKN035 09/04 Q0999
2018/04/26 03:20 EETN 260320Z VRB02KT 9999 BKN008 4/03 Q0996
2018/04/26 02:50 EETU 260250Z AUTO 26006KT 9999 -DZ OVC049/// 05/05 Q0996
   RIGA AIRPORT     EVRA               56 55N  023 58E   10   X     T          6 LV
   LIEPAJA INTL     EVLA        26406  56 31N  021 06E    4   X                8 LV
   VENTPILS         EVVA               57 21N  021 33E    6   X                8 LV
   KAUNAS           EYKA               54 54N  023 55E   77   X     T          6 LT
   PALANGA INTL     EYPA               55 55N  021 03E   10   X                6 LT
   SIAULIAI INTL    EYSA               55 54N  023 24E  135   X     T          6 LT
   VILNIUS INTL     EYVI        26730  54 38N  025 17E  197   X     T          6 LT
   KARDLA           EEKA        26116  58 59N  022 50E    4   X                8 EE
   KURESSAARE       EEKE               58 14N  022 31E    4   X                8 EE
   PARNU            EEPU               58 25N  024 28E   14   X                8 EE
   TALLINN          EETN        26038  59 24N  024 49E   40   X     T          8 EE
   TARTU            EETU               58 19N  026 41E   67   X                8 EE

cloud coverage image from sat24.com and METAR data from weather.noaa.gov